createdAt,value
2024-03-24T00:00:33.091Z,98.60
2024-03-24T00:01:33.082Z,98.24
2024-03-24T00:02:33.057Z,98.14
2024-03-24T00:03:33.038Z,98.24
2024-03-24T00:04:36.163Z,98.03
2024-03-24T00:05:33.056Z,98.24
2024-03-24T00:06:33.039Z,98.03
2024-03-24T00:07:32.992Z,98.35
2024-03-24T00:08:32.994Z,98.24
2024-03-24T00:09:32.971Z,98.24
2024-03-24T00:10:32.967Z,98.35
2024-03-24T00:11:32.967Z,98.14
2024-03-24T00:12:32.991Z,98.39
2024-03-24T00:13:32.940Z,98.86
2024-03-24T00:14:32.977Z,99.70
2024-03-24T00:15:32.924Z,98.72
2024-03-24T00:16:32.958Z,97.89
2024-03-24T00:17:32.888Z,98.30
2024-03-24T00:18:32.884Z,98.20
2024-03-24T00:19:32.872Z,98.24
2024-03-24T00:20:32.888Z,98.30
2024-03-24T00:21:32.832Z,98.51
2024-03-24T00:22:32.861Z,97.89
2024-03-24T00:23:32.843Z,98.55
2024-03-24T00:24:32.824Z,98.61
2024-03-24T00:25:32.822Z,98.41
2024-03-24T00:26:32.836Z,98.41
2024-03-24T00:27:32.806Z,98.30
2024-03-24T00:28:32.819Z,97.78
2024-03-24T00:29:32.767Z,98.14
2024-03-24T00:30:32.745Z,97.99
2024-03-24T00:31:32.741Z,98.51
2024-03-24T00:32:32.757Z,98.41
2024-03-24T00:33:32.717Z,98.41
2024-03-24T00:34:32.704Z,98.72
2024-03-24T00:35:32.693Z,98.03
2024-03-24T00:36:32.673Z,98.30
2024-03-24T00:37:32.672Z,98.10
2024-03-24T00:38:32.704Z,97.99
2024-03-24T00:39:32.649Z,97.68
2024-03-24T00:40:32.632Z,97.99
2024-03-24T00:41:32.649Z,97.58
2024-03-24T00:42:32.601Z,98.10
2024-03-24T00:43:32.597Z,97.78
2024-03-24T00:44:32.615Z,98.20
2024-03-24T00:45:32.614Z,98.41
2024-03-24T00:46:32.561Z,98.66
2024-03-24T00:47:32.610Z,98.30
2024-03-24T00:48:32.577Z,98.61
2024-03-24T00:49:32.574Z,98.41
2024-03-24T00:50:32.547Z,98.66
2024-03-24T00:51:32.532Z,98.72
2024-03-24T00:52:32.511Z,98.30
2024-03-24T00:53:32.498Z,98.24
2024-03-24T00:54:32.489Z,98.41
2024-03-24T00:55:32.491Z,98.41
2024-03-24T00:56:32.446Z,98.41
2024-03-24T00:57:32.478Z,98.51
2024-03-24T00:58:32.434Z,98.10
2024-03-24T00:59:32.434Z,98.51
2024-03-24T01:00:32.483Z,98.10
2024-03-24T01:01:32.432Z,98.51
2024-03-24T01:02:32.394Z,98.30
2024-03-24T01:03:32.411Z,98.10
2024-03-24T01:04:32.362Z,98.20
2024-03-24T01:05:32.359Z,98.20
2024-03-24T01:06:32.338Z,98.30
2024-03-24T01:07:32.359Z,98.41
2024-03-24T01:08:32.314Z,98.55
2024-03-24T01:09:32.301Z,98.55
2024-03-24T01:10:32.346Z,98.55
2024-03-24T01:11:33.007Z,98.55
2024-03-24T01:12:32.273Z,98.66
2024-03-24T01:13:32.262Z,98.24
2024-03-24T01:14:32.252Z,98.60
2024-03-24T01:15:32.254Z,99.22
2024-03-24T01:16:32.238Z,99.64
2024-03-24T01:17:32.215Z,99.43
2024-03-24T01:18:32.236Z,99.54
2024-03-24T01:19:33.069Z,99.43
2024-03-24T01:20:33.194Z,99.49
2024-03-24T01:21:32.195Z,99.43
2024-03-24T01:22:32.197Z,99.43
2024-03-24T01:23:32.176Z,99.59
2024-03-24T01:24:32.187Z,99.64
2024-03-24T01:25:32.162Z,99.33
2024-03-24T01:26:32.139Z,99.07
2024-03-24T01:27:32.119Z,98.45
2024-03-24T01:28:32.121Z,98.55
2024-03-24T01:29:32.116Z,97.93
2024-03-24T01:30:32.097Z,97.78
2024-03-24T01:31:32.087Z,97.68
2024-03-24T01:32:32.080Z,97.27
2024-03-24T01:33:32.063Z,97.68
2024-03-24T01:34:32.049Z,96.85
2024-03-24T01:35:32.035Z,96.33
2024-03-24T01:36:32.035Z,96.48
2024-03-24T01:37:32.000Z,95.92
2024-03-24T01:38:31.993Z,95.86
2024-03-24T01:39:31.978Z,96.17
2024-03-24T01:40:31.949Z,96.48
2024-03-24T01:41:31.990Z,96.37
2024-03-24T01:42:31.945Z,96.79
2024-03-24T01:43:31.986Z,97.83
2024-03-24T01:44:31.930Z,97.27
2024-03-24T01:45:31.900Z,97.31
2024-03-24T01:46:31.940Z,97.20
2024-03-24T01:47:31.903Z,97.83
2024-03-24T01:48:31.890Z,97.93
2024-03-24T01:49:31.948Z,97.72
2024-03-24T01:50:31.865Z,98.14
2024-03-24T01:51:31.909Z,98.14
2024-03-24T01:52:31.862Z,98.24
2024-03-24T01:53:31.826Z,98.35
2024-03-24T01:54:31.895Z,98.35
2024-03-24T01:55:31.800Z,98.71
2024-03-24T01:56:31.802Z,98.55
2024-03-24T01:57:31.807Z,98.35
2024-03-24T01:58:31.783Z,99.70
2024-03-24T01:59:31.786Z,98.86
2024-03-24T02:00:31.782Z,99.38
2024-03-24T02:01:31.745Z,99.22
2024-03-24T02:02:31.786Z,99.43
2024-03-24T02:03:31.762Z,99.33
2024-03-24T02:04:31.707Z,99.38
2024-03-24T02:05:31.696Z,99.49
2024-03-24T02:06:31.797Z,99.70
2024-03-24T02:07:32.068Z,99.64
2024-03-24T02:08:31.686Z,99.28
2024-03-24T02:09:31.654Z,99.59
2024-03-24T02:10:31.672Z,99.54
2024-03-24T02:11:31.650Z,99.43
2024-03-24T02:12:31.648Z,99.43
2024-03-24T02:13:31.608Z,99.49
2024-03-24T02:14:31.596Z,99.43
2024-03-24T02:15:31.580Z,99.38
2024-03-24T02:16:31.596Z,99.33
2024-03-24T02:17:31.584Z,99.22
2024-03-24T02:18:32.036Z,99.33
2024-03-24T02:19:31.565Z,99.33
2024-03-24T02:20:31.546Z,99.43
2024-03-24T02:21:31.519Z,99.33
2024-03-24T02:22:31.533Z,99.33
2024-03-24T02:23:31.536Z,99.18
2024-03-24T02:24:31.531Z,99.54
2024-03-24T02:25:31.486Z,99.33
2024-03-24T02:26:31.512Z,98.97
2024-03-24T02:27:31.473Z,98.71
2024-03-24T02:28:31.440Z,99.59
2024-03-24T02:29:31.523Z,99.18
2024-03-24T02:30:31.423Z,99.22
2024-03-24T02:31:31.413Z,99.18
2024-03-24T02:32:31.413Z,99.22
2024-03-24T02:33:31.395Z,99.38
2024-03-24T02:34:31.411Z,99.38
2024-03-24T02:35:31.378Z,99.54
2024-03-24T02:36:31.361Z,99.54
2024-03-24T02:37:31.345Z,99.43
2024-03-24T02:38:31.355Z,99.95
2024-03-24T02:39:31.338Z,99.99
2024-03-24T02:40:31.321Z,99.85
2024-03-24T02:41:31.306Z,99.80
2024-03-24T02:42:31.305Z,99.64
2024-03-24T02:43:31.286Z,99.28
2024-03-24T02:44:31.280Z,99.12
2024-03-24T02:45:31.261Z,99.85
2024-03-24T02:46:31.249Z,99.99
2024-03-24T02:47:31.327Z,99.99
2024-03-24T02:48:31.274Z,99.95
2024-03-24T02:49:31.238Z,99.43
2024-03-24T02:50:31.210Z,99.99
2024-03-24T02:51:31.194Z,99.80
2024-03-24T02:52:31.177Z,99.59
2024-03-24T02:53:31.906Z,99.49
2024-03-24T02:54:31.318Z,99.38
2024-03-24T02:55:31.158Z,99.49
2024-03-24T02:56:31.135Z,99.80
2024-03-24T02:57:31.146Z,99.18
2024-03-24T02:58:31.102Z,99.03
2024-03-24T02:59:31.160Z,99.34
2024-03-24T03:00:31.133Z,99.49
2024-03-24T03:01:31.111Z,99.28
2024-03-24T03:02:31.088Z,99.28
2024-03-24T03:03:31.074Z,99.38
2024-03-24T03:04:31.087Z,99.24
2024-03-24T03:05:31.058Z,99.07
2024-03-24T03:06:31.027Z,99.07
2024-03-24T03:07:31.071Z,98.97
2024-03-24T03:08:31.080Z,99.13
2024-03-24T03:09:31.043Z,99.24
2024-03-24T03:10:31.007Z,98.82
2024-03-24T03:11:31.303Z,99.55
2024-03-24T03:12:30.963Z,99.49
2024-03-24T03:13:30.967Z,98.61
2024-03-24T03:14:30.943Z,98.97
2024-03-24T03:15:30.939Z,99.86
2024-03-24T03:16:31.035Z,99.34
2024-03-24T03:17:30.933Z,99.49
2024-03-24T03:18:30.900Z,99.38
2024-03-24T03:19:30.899Z,99.91
2024-03-24T03:20:30.880Z,99.80
2024-03-24T03:21:30.892Z,99.91
2024-03-24T03:22:30.888Z,99.65
2024-03-24T03:23:30.842Z,99.55
2024-03-24T03:24:30.848Z,99.55
2024-03-24T03:25:30.818Z,99.13
2024-03-24T03:26:30.852Z,99.55
2024-03-24T03:27:30.841Z,99.03
2024-03-24T03:28:30.859Z,99.34
2024-03-24T03:29:30.802Z,99.34
2024-03-24T03:30:30.777Z,99.24
2024-03-24T03:31:30.830Z,99.34
2024-03-24T03:32:31.358Z,99.34
2024-03-24T03:33:30.747Z,99.40
2024-03-24T03:34:30.725Z,99.55
2024-03-24T03:35:30.752Z,99.44
2024-03-24T03:36:30.712Z,99.34
2024-03-24T03:37:30.743Z,99.19
2024-03-24T03:38:30.713Z,99.40
2024-03-24T03:39:30.665Z,99.34
2024-03-24T03:40:30.678Z,99.51
2024-03-24T03:41:30.662Z,99.34
2024-03-24T03:42:30.660Z,99.40
2024-03-24T03:43:30.650Z,98.88
2024-03-24T03:44:30.631Z,99.03
2024-03-24T03:45:30.616Z,99.24
2024-03-24T03:46:30.590Z,99.34
2024-03-24T03:47:30.621Z,99.55
2024-03-24T03:48:30.598Z,99.13
2024-03-24T03:49:30.567Z,98.61
2024-03-24T03:50:30.585Z,99.44
2024-03-24T03:51:30.582Z,99.44
2024-03-24T03:52:30.529Z,99.34
2024-03-24T03:53:30.529Z,99.19
2024-03-24T03:54:30.502Z,99.13
2024-03-24T03:55:30.483Z,99.34
2024-03-24T03:56:30.498Z,99.34
2024-03-24T03:57:30.467Z,99.44
2024-03-24T03:58:30.464Z,99.34
2024-03-24T03:59:30.495Z,99.34
2024-03-24T04:00:30.456Z,99.24
2024-03-24T04:01:30.445Z,99.34
2024-03-24T04:02:30.421Z,99.55
2024-03-24T04:03:30.417Z,99.24
2024-03-24T04:04:30.405Z,99.34
2024-03-24T04:05:30.400Z,99.44
2024-03-24T04:06:30.360Z,99.44
2024-03-24T04:07:30.398Z,98.82
2024-03-24T04:08:30.374Z,99.24
2024-03-24T04:09:30.362Z,99.24
2024-03-24T04:10:30.334Z,99.13
2024-03-24T04:11:30.324Z,99.24
2024-03-24T04:12:30.328Z,99.24
2024-03-24T04:13:30.292Z,99.44
2024-03-24T04:14:30.315Z,99.24
2024-03-24T04:15:30.282Z,99.44
2024-03-24T04:16:30.295Z,99.03
2024-03-24T04:17:30.293Z,99.51
2024-03-24T04:18:30.958Z,98.93
2024-03-24T04:19:30.229Z,99.03
2024-03-24T04:20:30.253Z,98.82
2024-03-24T04:21:30.231Z,99.55
2024-03-24T04:22:30.274Z,99.34
2024-03-24T04:23:30.192Z,99.55
2024-03-24T04:24:30.216Z,99.34
2024-03-24T04:25:30.191Z,99.34
2024-03-24T04:26:30.183Z,99.13
2024-03-24T04:27:30.178Z,98.61
2024-03-24T04:28:30.151Z,98.16
2024-03-24T04:29:30.125Z,98.41
2024-03-24T04:30:30.131Z,97.89
2024-03-24T04:31:30.156Z,98.16
2024-03-24T04:32:31.093Z,97.78
2024-03-24T04:33:30.098Z,97.78
2024-03-24T04:34:30.098Z,97.68
2024-03-24T04:35:30.143Z,97.58
2024-03-24T04:36:30.109Z,97.78
2024-03-24T04:37:30.142Z,97.74
2024-03-24T04:38:30.030Z,97.47
2024-03-24T04:39:30.071Z,97.37
2024-03-24T04:40:30.338Z,97.89
2024-03-24T04:41:30.236Z,97.37
2024-03-24T04:42:30.089Z,97.27
2024-03-24T04:43:30.086Z,97.68
2024-03-24T04:44:30.029Z,98.10
2024-03-24T04:45:29.999Z,98.51
2024-03-24T04:46:30.050Z,98.72
2024-03-24T04:47:29.942Z,98.82
2024-03-24T04:48:29.931Z,98.10
2024-03-24T04:49:29.928Z,97.99
2024-03-24T04:50:29.912Z,99.44
2024-03-24T04:51:29.917Z,99.34
2024-03-24T04:52:29.916Z,98.61
2024-03-24T04:53:29.876Z,99.65
2024-03-24T04:54:29.896Z,99.55
2024-03-24T04:55:29.846Z,98.41
2024-03-24T04:56:29.823Z,98.72
2024-03-24T04:57:29.812Z,98.93
2024-03-24T04:58:29.833Z,98.82
2024-03-24T04:59:29.818Z,98.51
2024-03-24T05:00:29.792Z,98.61
2024-03-24T05:01:29.907Z,98.30
2024-03-24T05:02:29.764Z,98.10
2024-03-24T05:03:29.781Z,98.10
2024-03-24T05:04:29.788Z,98.30
2024-03-24T05:05:29.766Z,98.20
2024-03-24T05:06:29.730Z,97.99
2024-03-24T05:07:29.717Z,98.30
2024-03-24T05:08:29.734Z,97.47
2024-03-24T05:09:29.740Z,97.78
2024-03-24T05:10:29.690Z,97.68
2024-03-24T05:11:29.718Z,97.89
2024-03-24T05:12:29.666Z,97.37
2024-03-24T05:13:29.656Z,97.68
2024-03-24T05:14:29.668Z,97.37
2024-03-24T05:15:29.629Z,97.27
2024-03-24T05:16:29.654Z,96.95
2024-03-24T05:17:29.598Z,96.44
2024-03-24T05:18:29.599Z,97.06
2024-03-24T05:19:29.594Z,96.54
2024-03-24T05:20:31.718Z,96.64
2024-03-24T05:21:30.610Z,96.50
2024-03-24T05:22:29.576Z,96.91
2024-03-24T05:23:30.442Z,96.50
2024-03-24T05:24:29.597Z,96.23
2024-03-24T05:25:30.470Z,96.02
2024-03-24T05:26:29.520Z,95.71
2024-03-24T05:27:29.495Z,96.39
2024-03-24T05:28:32.851Z,96.33
2024-03-24T05:29:30.491Z,96.02
2024-03-24T05:30:29.476Z,95.87
2024-03-24T05:31:29.509Z,96.02
2024-03-24T05:32:29.463Z,97.06
2024-03-24T05:33:29.434Z,96.44
2024-03-24T05:34:29.428Z,96.19
2024-03-24T05:35:29.423Z,95.50
2024-03-24T05:36:29.394Z,96.50
2024-03-24T05:37:29.406Z,95.77
2024-03-24T05:38:29.377Z,96.60
2024-03-24T05:39:29.399Z,95.46
2024-03-24T05:40:29.373Z,96.29
2024-03-24T05:41:29.350Z,96.81
2024-03-24T05:42:29.351Z,95.25
2024-03-24T05:43:29.360Z,95.46
2024-03-24T05:44:29.345Z,95.15
2024-03-24T05:45:29.309Z,95.40
2024-03-24T05:46:29.295Z,96.50
2024-03-24T05:47:31.695Z,96.08
2024-03-24T05:48:29.267Z,95.87
2024-03-24T05:49:29.296Z,96.08
2024-03-24T05:50:29.265Z,95.87
2024-03-24T05:51:29.267Z,95.77
2024-03-24T05:52:29.250Z,96.29
2024-03-24T05:53:29.202Z,96.29
2024-03-24T05:54:29.224Z,97.33
2024-03-24T05:55:29.193Z,96.19
2024-03-24T05:56:29.180Z,96.60
2024-03-24T05:57:29.171Z,96.54
2024-03-24T05:58:29.171Z,96.64
2024-03-24T05:59:29.157Z,96.23
2024-03-24T06:00:29.187Z,96.29
2024-03-24T06:01:29.168Z,96.54
2024-03-24T06:02:29.134Z,96.12
2024-03-24T06:03:29.119Z,96.39
2024-03-24T06:04:29.097Z,96.81
2024-03-24T06:05:29.125Z,95.56
2024-03-24T06:06:29.087Z,95.77
2024-03-24T06:07:29.069Z,96.19
2024-03-24T06:08:29.158Z,96.19
2024-03-24T06:09:29.075Z,96.08
2024-03-24T06:10:29.093Z,96.19
2024-03-24T06:11:29.065Z,95.15
2024-03-24T06:12:29.025Z,95.77
2024-03-24T06:13:29.037Z,96.08
2024-03-24T06:14:28.989Z,96.08
2024-03-24T06:15:28.995Z,96.19
2024-03-24T06:16:28.983Z,96.08
2024-03-24T06:17:28.977Z,96.39
2024-03-24T06:18:28.955Z,96.81
2024-03-24T06:19:28.938Z,96.19
2024-03-24T06:20:29.015Z,96.50
2024-03-24T06:21:28.927Z,96.50
2024-03-24T06:22:28.906Z,96.19
2024-03-24T06:23:28.946Z,96.08
2024-03-24T06:24:28.906Z,96.08
2024-03-24T06:25:28.887Z,95.15
2024-03-24T06:26:28.871Z,95.41
2024-03-24T06:27:28.850Z,95.98
2024-03-24T06:28:28.865Z,95.15
2024-03-24T06:29:28.864Z,95.41
2024-03-24T06:30:29.830Z,95.62
2024-03-24T06:31:28.872Z,96.14
2024-03-24T06:32:28.835Z,96.24
2024-03-24T06:33:28.806Z,96.55
2024-03-24T06:34:28.803Z,95.41
2024-03-24T06:35:28.779Z,95.51
2024-03-24T06:36:28.760Z,95.51
2024-03-24T06:37:28.780Z,95.10
2024-03-24T06:38:28.733Z,95.31
2024-03-24T06:39:28.744Z,96.24
2024-03-24T06:40:28.714Z,95.10
2024-03-24T06:41:28.685Z,95.20
2024-03-24T06:42:28.736Z,95.72
2024-03-24T06:43:28.705Z,95.51
2024-03-24T06:44:28.682Z,95.62
2024-03-24T06:45:28.685Z,95.41
2024-03-24T06:46:28.641Z,95.41
2024-03-24T06:47:28.705Z,94.64
2024-03-24T06:48:28.650Z,95.06
2024-03-24T06:49:28.645Z,94.85
2024-03-24T06:50:28.640Z,94.70
2024-03-24T06:51:28.598Z,94.70
2024-03-24T06:52:30.115Z,94.49
2024-03-24T06:53:29.611Z,94.64
2024-03-24T06:54:28.563Z,93.81
2024-03-24T06:55:28.563Z,93.87
2024-03-24T06:56:28.546Z,93.66
2024-03-24T06:57:28.539Z,93.77
2024-03-24T06:58:28.552Z,93.87
2024-03-24T06:59:28.526Z,94.29
2024-03-24T07:00:28.502Z,94.29
2024-03-24T07:01:28.492Z,93.77
2024-03-24T07:02:28.528Z,94.08
2024-03-24T07:03:28.476Z,94.08
2024-03-24T07:04:28.450Z,93.77
2024-03-24T07:05:28.435Z,93.87
2024-03-24T07:06:28.440Z,94.49
2024-03-24T07:07:28.422Z,94.81
2024-03-24T07:08:28.442Z,94.70
2024-03-24T07:09:28.442Z,94.60
2024-03-24T07:10:28.424Z,94.91
2024-03-24T07:11:28.375Z,95.47
2024-03-24T07:12:28.389Z,94.95
2024-03-24T07:13:28.441Z,94.74
2024-03-24T07:14:28.351Z,95.41
2024-03-24T07:15:29.327Z,96.03
2024-03-24T07:16:28.328Z,95.37
2024-03-24T07:17:28.400Z,96.41
2024-03-24T07:18:28.329Z,95.68
2024-03-24T07:19:28.348Z,95.99
2024-03-24T07:20:28.299Z,95.74
2024-03-24T07:21:28.274Z,95.64
2024-03-24T07:22:28.251Z,95.64
2024-03-24T07:23:28.260Z,95.99
2024-03-24T07:24:28.248Z,95.53
2024-03-24T07:25:28.232Z,96.15
2024-03-24T07:26:28.230Z,95.53
2024-03-24T07:27:28.225Z,95.95
2024-03-24T07:28:28.250Z,96.61
2024-03-24T07:29:28.231Z,95.95
2024-03-24T07:30:28.186Z,96.20
2024-03-24T07:31:28.164Z,95.78
2024-03-24T07:32:28.172Z,96.26
2024-03-24T07:33:30.630Z,96.72
2024-03-24T07:34:28.131Z,96.09
2024-03-24T07:35:28.124Z,95.57
2024-03-24T07:36:28.095Z,96.30
2024-03-24T07:37:28.160Z,96.57
2024-03-24T07:38:28.124Z,96.30
2024-03-24T07:39:28.081Z,95.64
2024-03-24T07:40:28.107Z,95.64
2024-03-24T07:41:28.075Z,95.22
2024-03-24T07:42:28.038Z,95.32
2024-03-24T07:43:28.034Z,94.60
2024-03-24T07:44:28.038Z,95.12
2024-03-24T07:45:28.010Z,95.43
2024-03-24T07:46:28.028Z,94.60
2024-03-24T07:47:28.052Z,94.97
2024-03-24T07:48:28.014Z,94.87
2024-03-24T07:49:27.990Z,95.32
2024-03-24T07:50:27.963Z,94.60
2024-03-24T07:51:27.966Z,94.81
2024-03-24T07:52:28.005Z,94.60
2024-03-24T07:53:27.933Z,95.01
2024-03-24T07:54:27.930Z,95.01
2024-03-24T07:55:27.940Z,94.39
2024-03-24T07:56:27.882Z,94.91
2024-03-24T07:57:28.248Z,94.49
2024-03-24T07:58:27.865Z,94.60
2024-03-24T07:59:27.883Z,94.39
2024-03-24T08:00:27.862Z,95.12
2024-03-24T08:01:27.848Z,95.01
2024-03-24T08:02:27.950Z,95.12
2024-03-24T08:03:27.844Z,94.60
2024-03-24T08:04:27.827Z,94.60
2024-03-24T08:05:29.689Z,94.81
2024-03-24T08:06:27.805Z,94.66
2024-03-24T08:07:27.800Z,93.52
2024-03-24T08:08:27.811Z,94.14
2024-03-24T08:09:27.756Z,94.10
2024-03-24T08:10:27.756Z,94.10
2024-03-24T08:11:27.734Z,93.89
2024-03-24T08:12:27.717Z,93.37
2024-03-24T08:13:29.595Z,93.37
2024-03-24T08:14:27.719Z,93.23
2024-03-24T08:15:27.705Z,93.27
2024-03-24T08:16:27.704Z,93.37
2024-03-24T08:17:27.743Z,93.48
2024-03-24T08:18:27.740Z,93.37
2024-03-24T08:19:27.666Z,93.16
2024-03-24T08:20:27.681Z,93.37
2024-03-24T08:21:27.650Z,93.99
2024-03-24T08:22:27.648Z,93.89
2024-03-24T08:23:27.664Z,93.33
2024-03-24T08:24:27.637Z,94.41
2024-03-24T08:25:27.590Z,93.85
2024-03-24T08:26:27.613Z,92.81
2024-03-24T08:27:27.617Z,92.61
2024-03-24T08:28:27.585Z,92.91
2024-03-24T08:29:27.647Z,92.55
2024-03-24T08:30:27.536Z,93.02
2024-03-24T08:31:27.512Z,93.54
2024-03-24T08:32:27.546Z,93.12
2024-03-24T08:33:27.513Z,93.12
2024-03-24T08:34:27.514Z,93.06
2024-03-24T08:35:28.552Z,93.06
2024-03-24T08:36:28.494Z,92.91
2024-03-24T08:37:27.643Z,93.27
2024-03-24T08:38:27.469Z,93.02
2024-03-24T08:39:27.446Z,93.16
2024-03-24T08:40:31.078Z,93.16
2024-03-24T08:41:27.460Z,93.89
2024-03-24T08:42:27.434Z,94.10
2024-03-24T08:43:27.414Z,93.16
2024-03-24T08:44:27.520Z,94.51
2024-03-24T08:45:27.409Z,94.62
2024-03-24T08:46:27.411Z,95.03
2024-03-24T08:47:27.477Z,94.93
2024-03-24T08:48:34.348Z,95.65
2024-03-24T08:49:31.289Z,95.96
2024-03-24T08:50:27.345Z,95.86
2024-03-24T08:51:27.348Z,95.54
2024-03-24T08:52:27.322Z,95.65
2024-03-24T08:53:27.293Z,95.86
2024-03-24T08:54:27.288Z,96.06
2024-03-24T08:55:27.455Z,95.92
2024-03-24T08:56:27.285Z,95.96
2024-03-24T08:57:27.335Z,95.75
2024-03-24T08:58:27.253Z,96.02
2024-03-24T08:59:27.281Z,96.12
2024-03-24T09:00:27.234Z,95.71
2024-03-24T09:01:27.241Z,95.50
2024-03-24T09:02:27.218Z,95.81
2024-03-24T09:03:27.195Z,96.44
2024-03-24T09:04:27.209Z,95.71
2024-03-24T09:05:27.190Z,95.40
2024-03-24T09:06:27.185Z,94.98
2024-03-24T09:07:27.241Z,95.67
2024-03-24T09:08:27.141Z,95.81
2024-03-24T09:09:27.193Z,95.61
2024-03-24T09:10:27.202Z,96.12
2024-03-24T09:11:27.113Z,95.71
2024-03-24T09:12:27.118Z,95.15
2024-03-24T09:13:27.097Z,94.53
2024-03-24T09:14:27.070Z,95.09
2024-03-24T09:15:27.107Z,94.89
2024-03-24T09:16:27.085Z,94.68
2024-03-24T09:17:27.124Z,94.78
2024-03-24T09:18:27.033Z,94.89
2024-03-24T09:19:27.086Z,94.47
2024-03-24T09:20:27.021Z,94.57
2024-03-24T09:21:27.010Z,94.89
2024-03-24T09:22:27.047Z,94.98
2024-03-24T09:23:26.987Z,94.37
2024-03-24T09:24:26.995Z,94.78
2024-03-24T09:25:27.052Z,94.78
2024-03-24T09:26:27.037Z,94.78
2024-03-24T09:27:26.975Z,94.37
2024-03-24T09:28:26.990Z,94.16
2024-03-24T09:29:26.910Z,94.16
2024-03-24T09:30:26.917Z,94.84
2024-03-24T09:31:26.973Z,94.53
2024-03-24T09:32:26.896Z,95.15
2024-03-24T09:33:26.896Z,94.22
2024-03-24T09:34:26.894Z,94.43
2024-03-24T09:35:26.850Z,94.22
2024-03-24T09:36:26.881Z,94.53
2024-03-24T09:37:26.874Z,94.32
2024-03-24T09:38:28.608Z,94.32
2024-03-24T09:39:26.914Z,94.53
2024-03-24T09:40:27.825Z,94.12
2024-03-24T09:41:26.887Z,95.15
2024-03-24T09:42:26.846Z,94.28
2024-03-24T09:43:26.803Z,94.28
2024-03-24T09:44:26.756Z,93.87
2024-03-24T09:45:26.799Z,93.24
2024-03-24T09:46:26.827Z,92.93
2024-03-24T09:47:26.779Z,93.04
2024-03-24T09:48:26.777Z,93.35
2024-03-24T09:49:26.755Z,93.04
2024-03-24T09:50:26.715Z,93.04
2024-03-24T09:51:26.700Z,92.93
2024-03-24T09:52:26.719Z,92.72
2024-03-24T09:53:26.675Z,92.93
2024-03-24T09:54:26.679Z,93.14
2024-03-24T09:55:26.680Z,93.14
2024-03-24T09:56:26.619Z,92.99
2024-03-24T09:57:26.657Z,92.99
2024-03-24T09:58:26.676Z,91.96
2024-03-24T09:59:26.636Z,91.53
2024-03-24T10:00:26.613Z,92.00
2024-03-24T10:01:26.600Z,91.94
2024-03-24T10:02:26.557Z,92.67
2024-03-24T10:03:29.524Z,92.52
2024-03-24T10:04:27.887Z,92.83
2024-03-24T10:05:26.555Z,92.00
2024-03-24T10:06:26.577Z,91.86
2024-03-24T10:07:26.530Z,91.34
2024-03-24T10:08:26.518Z,90.68
2024-03-24T10:09:26.514Z,90.43
2024-03-24T10:10:26.540Z,89.77
2024-03-24T10:11:26.492Z,88.22
2024-03-24T10:12:26.564Z,88.74
2024-03-24T10:13:26.493Z,89.25
2024-03-24T10:14:26.473Z,88.49
2024-03-24T10:15:26.468Z,88.70
2024-03-24T10:16:26.448Z,88.02
2024-03-24T10:17:26.415Z,88.64
2024-03-24T10:18:26.410Z,88.64
2024-03-24T10:19:26.446Z,88.02
2024-03-24T10:20:26.409Z,88.43
2024-03-24T10:21:26.400Z,88.12
2024-03-24T10:22:26.368Z,88.95
2024-03-24T10:23:26.360Z,88.95
2024-03-24T10:24:26.607Z,88.53
2024-03-24T10:25:26.362Z,88.84
2024-03-24T10:26:26.329Z,88.95
2024-03-24T10:27:26.333Z,88.84
2024-03-24T10:28:26.384Z,88.70
2024-03-24T10:29:26.273Z,88.29
2024-03-24T10:30:26.935Z,87.98
2024-03-24T10:31:26.301Z,87.98
2024-03-24T10:32:28.365Z,87.77
2024-03-24T10:33:27.257Z,87.42
2024-03-24T10:34:26.315Z,88.49
2024-03-24T10:35:26.219Z,87.73
2024-03-24T10:36:26.225Z,87.46
2024-03-24T10:37:26.218Z,87.77
2024-03-24T10:38:26.186Z,87.93
2024-03-24T10:39:26.180Z,87.52
2024-03-24T10:40:26.273Z,87.87
2024-03-24T10:41:26.174Z,87.93
2024-03-24T10:42:26.149Z,87.83
2024-03-24T10:43:26.176Z,88.29
2024-03-24T10:44:26.132Z,88.49
2024-03-24T10:45:26.141Z,88.39
2024-03-24T10:46:26.908Z,88.90
2024-03-24T10:47:26.106Z,90.45
2024-03-24T10:48:26.932Z,89.22
2024-03-24T10:49:26.066Z,90.14
2024-03-24T10:50:26.143Z,88.49
2024-03-24T10:51:26.016Z,86.84
2024-03-24T10:52:26.102Z,86.74
2024-03-24T10:53:26.014Z,86.87
2024-03-24T10:54:26.119Z,85.11
2024-03-24T10:55:25.985Z,85.07
2024-03-24T10:56:26.037Z,83.70
2024-03-24T10:57:25.954Z,83.49
2024-03-24T10:58:25.951Z,81.53
2024-03-24T10:59:25.974Z,81.12
2024-03-24T11:00:26.016Z,80.61
2024-03-24T11:01:25.998Z,80.81
2024-03-24T11:02:26.099Z,81.19
2024-03-24T11:03:25.932Z,81.35
2024-03-24T11:04:25.972Z,80.22
2024-03-24T11:05:25.875Z,79.71
2024-03-24T11:06:26.903Z,80.33
2024-03-24T11:07:25.847Z,79.67
2024-03-24T11:08:25.821Z,80.29
2024-03-24T11:09:25.817Z,80.60
2024-03-24T11:10:25.910Z,78.96
2024-03-24T11:11:25.812Z,78.68
2024-03-24T11:12:25.914Z,78.68
2024-03-24T11:13:25.834Z,79.09
2024-03-24T11:14:25.923Z,79.54
2024-03-24T11:15:25.864Z,80.22
2024-03-24T11:16:25.766Z,80.33
2024-03-24T11:17:25.836Z,79.91
2024-03-24T11:18:25.758Z,79.67
2024-03-24T11:19:25.786Z,78.64
2024-03-24T11:20:25.825Z,78.61
2024-03-24T11:21:25.764Z,77.58
2024-03-24T11:22:25.765Z,78.72
2024-03-24T11:23:25.743Z,78.82
2024-03-24T11:24:26.424Z,78.41
2024-03-24T11:25:25.697Z,79.37
2024-03-24T11:26:25.717Z,79.23
2024-03-24T11:27:25.674Z,79.44
2024-03-24T11:28:25.681Z,78.33
2024-03-24T11:29:25.654Z,77.17
2024-03-24T11:30:25.641Z,76.79
2024-03-24T11:31:25.666Z,76.86
2024-03-24T11:32:25.635Z,75.52
2024-03-24T11:33:26.411Z,75.42
2024-03-24T11:34:25.606Z,74.87
2024-03-24T11:35:25.602Z,74.29
2024-03-24T11:36:25.647Z,74.74
2024-03-24T11:37:25.531Z,74.40
2024-03-24T11:38:25.542Z,74.91
2024-03-24T11:39:25.523Z,75.52
2024-03-24T11:40:25.574Z,73.95
2024-03-24T11:41:28.159Z,74.02
2024-03-24T11:42:26.532Z,73.57
2024-03-24T11:43:25.477Z,71.93
2024-03-24T11:44:25.494Z,72.28
2024-03-24T11:45:25.494Z,71.53
2024-03-24T11:46:25.536Z,69.41
2024-03-24T11:47:25.487Z,70.53
2024-03-24T11:48:25.456Z,69.95
2024-03-24T11:49:26.347Z,69.98
2024-03-24T11:50:25.426Z,70.94
2024-03-24T11:51:25.427Z,69.85
2024-03-24T11:52:25.439Z,68.62
2024-03-24T11:53:25.418Z,69.13
2024-03-24T11:54:25.362Z,69.68
2024-03-24T11:55:25.374Z,69.37
2024-03-24T11:56:25.351Z,69.17
2024-03-24T11:57:25.348Z,68.46
2024-03-24T11:58:25.346Z,67.33
2024-03-24T11:59:25.358Z,66.92
2024-03-24T12:00:25.378Z,66.58
2024-03-24T12:01:25.335Z,67.36
2024-03-24T12:02:25.278Z,67.52
2024-03-24T12:03:25.496Z,69.57
2024-03-24T12:04:25.288Z,69.02
2024-03-24T12:05:25.254Z,71.39
2024-03-24T12:06:25.230Z,71.08
2024-03-24T12:07:25.295Z,72.65
2024-03-24T12:08:25.309Z,72.55
2024-03-24T12:09:25.208Z,71.93
2024-03-24T12:10:25.203Z,73.47
2024-03-24T12:11:27.513Z,72.85
2024-03-24T12:12:26.168Z,71.52
2024-03-24T12:13:25.144Z,70.60
2024-03-24T12:14:25.098Z,70.12
2024-03-24T12:15:25.150Z,69.60
2024-03-24T12:16:25.193Z,70.94
2024-03-24T12:17:25.304Z,71.76
2024-03-24T12:18:25.095Z,71.76
2024-03-24T12:19:25.128Z,71.25
2024-03-24T12:20:25.199Z,71.17
2024-03-24T12:21:25.059Z,71.89
2024-03-24T12:22:25.016Z,72.41
2024-03-24T12:23:25.049Z,72.41
2024-03-24T12:24:25.046Z,72.00
2024-03-24T12:25:25.071Z,71.89
2024-03-24T12:26:24.986Z,72.72
2024-03-24T12:27:24.999Z,72.38
2024-03-24T12:28:25.166Z,72.78
2024-03-24T12:29:25.027Z,72.38
2024-03-24T12:30:25.050Z,72.10
2024-03-24T12:31:25.748Z,71.45
2024-03-24T12:32:25.018Z,71.08
2024-03-24T12:33:25.036Z,70.53
2024-03-24T12:34:24.960Z,69.98
2024-03-24T12:35:24.963Z,69.17
2024-03-24T12:36:25.988Z,69.71
2024-03-24T12:37:24.907Z,68.79
2024-03-24T12:38:25.045Z,68.99
2024-03-24T12:39:25.067Z,69.20
2024-03-24T12:40:24.888Z,68.99
2024-03-24T12:41:24.882Z,70.26
2024-03-24T12:42:25.827Z,69.43
2024-03-24T12:43:24.812Z,69.54
2024-03-24T12:44:24.840Z,69.26
2024-03-24T12:45:24.800Z,69.57
2024-03-24T12:46:24.792Z,70.42
2024-03-24T12:47:24.814Z,71.52
2024-03-24T12:48:25.360Z,70.94
2024-03-24T12:49:38.455Z,70.87
2024-03-24T12:51:26.507Z,70.97
2024-03-24T12:52:25.347Z,69.94
2024-03-24T12:53:24.759Z,69.64